TFM - Tactical Decision Aid INFO Settings
 
 

Runway Winds:

kiad - Washington-Dulles Intl

Updated at: 2049 UTC 23 Apr 2014
Latest TAF at: 1745 UTC 23 Apr 2014

TAF Board

Time1952Z23/21Z23/22Z23/23Z24/00Z24/01Z24/02Z24/03Z24/04Z24/05Z24/06Z24/07Z24/08Z24/09Z
TypeOBSPRVLPRVLPRVLPRVLPRVLPRVLPRVLPRVLPRVLPRVLPRVLPRVLPRVL
Vis10>6>6>6>6>6>6>6>6>6>6>6>6>6
Ceil----------------------------
CoverSCTFEWFEWFEWFEWSKCSKCSKCSKCSKCSKCSKCSKCSKC
FltCat--VFRVFRVFRVFRVFRVFRVFRVFRVFRVFRVFRVFRVFR
Wx----------------------------
WDir320320320320320320320320320320320320320320
WSpd19181818181414141499999
WGst2928282828------------------
Raw TAF
KIAD 231745Z 2318/2424 32019G31KT P6SM BKN050
  FM232100 32018G28KT P6SM FEW050
  FM240100 32014KT P6SM SKC
  FM240500 32009KT P6SM SKC
  FM242200 33005KT P6SM SCT250


Raw METAR
KIAD 231952Z 32019G29KT 10SM SCT050 14/01 A2985 RMK AO2 PK WND 31030/1935 SLP108 T01390006

TAF/METAR Board Legend

Hazard Green Yellow Red Magenta
Visibility (sm) >5 >2.99 >0.99 <=0.99
Ceiling (100 ft) >30 >9.99 >4.9 <=4.9
Wind Speed (kt) <11 <23.1 >=23.1
Wind Gust (kt) <18 <30.1 >=30.1
Weather No Wx Reported Light precipitation Moderate precipitation Heavy precipitation
Flight Category VFR MVFR IFR LIFR

Page loaded:  20:49 UTC  |   01:49 PM Pacific  |   02:49 PM Mountain  |   03:49 PM Central  |   04:49 PM Eastern

 

ADVISORIES

FORECASTS

FORECASTS

OBSERVATIONS

USER TOOLS

ABOUT US